createdAt,value
2023-04-21T00:04:32.869Z,95774.34
2023-04-21T00:09:35.623Z,95788.88
2023-04-21T00:14:40.790Z,95784.97
2023-04-21T00:19:43.622Z,95766.13
2023-04-21T00:24:46.257Z,95777.31
2023-04-21T00:29:50.384Z,95756.34
2023-04-21T00:34:53.195Z,95748.22
2023-04-21T00:39:55.401Z,95749.91
2023-04-21T00:44:58.156Z,95737.66
2023-04-21T00:50:01.300Z,95745.59
2023-04-21T00:55:04.182Z,95729.09
2023-04-21T01:00:09.301Z,95712.34
2023-04-21T01:05:13.067Z,95697.91
2023-04-21T01:10:15.947Z,95705.31
2023-04-21T01:15:18.958Z,95706.97
2023-04-21T01:20:21.834Z,95713.88
2023-04-21T01:25:28.324Z,95711.25
2023-04-21T01:30:31.867Z,95720.41
2023-04-21T01:35:34.976Z,95712.56
2023-04-21T01:40:38.291Z,95705.47
2023-04-21T01:45:40.624Z,95719.94
2023-04-21T01:50:43.571Z,95717.06
2023-04-21T01:55:46.589Z,95701.47
2023-04-21T02:00:49.393Z,95713.22
2023-04-21T02:05:51.783Z,95692.75
2023-04-21T02:10:54.471Z,95695.50
2023-04-21T02:16:09.602Z,95689.38
2023-04-21T02:21:16.143Z,95696.69
2023-04-21T02:26:19.627Z,95701.16
2023-04-21T02:31:22.512Z,95704.53
2023-04-21T02:36:25.576Z,95712.63
2023-04-21T02:41:29.136Z,95701.63
2023-04-21T02:46:31.904Z,95713.09
2023-04-21T02:51:35.271Z,95691.94
2023-04-21T02:56:38.204Z,95708.50
2023-04-21T03:01:42.262Z,95704.06
2023-04-21T03:06:45.120Z,95694.25
2023-04-21T03:11:48.371Z,95697.91
2023-04-21T03:16:51.069Z,95735.41
2023-04-21T03:21:53.779Z,95711.88
2023-04-21T03:26:57.246Z,95706.59
2023-04-21T03:31:59.695Z,95715.75
2023-04-21T03:37:03.036Z,95724.94
2023-04-21T03:42:05.770Z,95704.38
2023-04-21T03:47:08.720Z,95735.59
2023-04-21T03:52:12.206Z,95715.03
2023-04-21T03:57:15.718Z,95732.09
2023-04-21T04:02:18.485Z,95720.09
2023-04-21T04:07:21.706Z,95745.41
2023-04-21T04:12:24.547Z,95731.59
2023-04-21T04:17:27.382Z,95743.59
2023-04-21T04:22:29.739Z,95756.69
2023-04-21T04:27:33.583Z,95757.69
2023-04-21T04:32:38.962Z,95730.13
2023-04-21T04:37:42.251Z,95762.63
2023-04-21T04:42:47.278Z,95753.78
2023-04-21T04:47:52.450Z,95739.06
2023-04-21T04:52:56.520Z,95751.38
2023-04-21T04:57:59.470Z,95769.47
2023-04-21T05:03:02.209Z,95753.94
2023-04-21T05:08:05.210Z,95770.13
2023-04-21T05:13:07.969Z,95765.63
2023-04-21T05:18:10.392Z,95757.06
2023-04-21T05:23:13.074Z,95749.25
2023-04-21T05:28:15.906Z,95754.03
2023-04-21T05:33:22.041Z,95740.19
2023-04-21T05:38:24.813Z,95746.13
2023-04-21T05:43:27.171Z,95748.03
2023-04-21T05:48:30.161Z,95739.72
2023-04-21T05:53:32.857Z,95735.94
2023-04-21T05:58:36.245Z,95737.19
2023-04-21T06:03:38.751Z,95730.53
2023-04-21T06:08:42.076Z,95731.47
2023-04-21T06:13:45.081Z,95729.03
2023-04-21T06:18:47.774Z,95734.91
2023-04-21T06:23:50.708Z,95712.94
2023-04-21T06:28:53.512Z,95735.25
2023-04-21T06:33:55.809Z,95719.19
2023-04-21T06:38:58.399Z,95740.50
2023-04-21T06:44:01.112Z,95731.78
2023-04-21T06:49:04.372Z,95745.44
2023-04-21T06:54:07.261Z,95747.88
2023-04-21T06:59:10.647Z,95742.59
2023-04-21T07:04:12.996Z,95750.00
2023-04-21T07:09:15.863Z,95750.56
2023-04-21T07:14:18.417Z,95736.94
2023-04-21T07:19:21.397Z,95755.28
2023-04-21T07:24:23.703Z,95761.84
2023-04-21T07:29:27.106Z,95765.53
2023-04-21T07:34:29.376Z,95763.03
2023-04-21T07:39:32.180Z,95765.66
2023-04-21T07:44:35.205Z,95773.75
2023-04-21T07:49:56.483Z,95778.56
2023-04-21T07:54:59.073Z,95779.75
2023-04-21T08:00:01.858Z,95787.72
2023-04-21T08:05:15.053Z,95784.84
2023-04-21T08:10:17.575Z,95787.63
2023-04-21T08:15:20.391Z,95801.41
2023-04-21T08:20:23.156Z,95780.28
2023-04-21T08:25:26.207Z,95765.03
2023-04-21T08:30:29.961Z,95806.88
2023-04-21T08:35:32.748Z,95801.09
2023-04-21T08:40:42.259Z,95815.16
2023-04-21T08:45:45.125Z,95783.16
2023-04-21T08:50:50.122Z,95800.69
2023-04-21T08:56:07.595Z,95803.53
2023-04-21T09:01:13.717Z,95799.16
2023-04-21T09:06:16.637Z,95799.44
2023-04-21T09:11:19.948Z,95774.06
2023-04-21T09:16:22.973Z,95784.50
2023-04-21T09:21:30.766Z,95765.66
2023-04-21T09:26:37.214Z,95793.53
2023-04-21T09:31:40.196Z,95780.31
2023-04-21T09:36:43.153Z,95782.34
2023-04-21T09:41:45.963Z,95769.06
2023-04-21T09:46:51.559Z,95774.25
2023-04-21T09:57:05.354Z,95769.84
2023-04-21T10:02:10.079Z,95771.06
2023-04-21T10:07:13.321Z,95753.25
2023-04-21T10:12:17.845Z,95758.78
2023-04-21T10:17:27.478Z,95749.81
2023-04-21T10:22:32.857Z,95758.47
2023-04-21T10:27:38.104Z,95741.50
2023-04-21T10:32:45.844Z,95764.59
2023-04-21T10:37:50.457Z,95775.47
2023-04-21T10:42:53.202Z,95750.84
2023-04-21T10:47:55.974Z,95761.25
2023-04-21T10:52:59.994Z,95775.25
2023-04-21T10:58:04.633Z,95771.75
2023-04-21T11:03:09.239Z,95776.91
2023-04-21T11:08:15.036Z,95755.94
2023-04-21T11:13:17.978Z,95751.28
2023-04-21T11:18:20.328Z,95742.75
2023-04-21T11:23:22.970Z,95769.34
2023-04-21T11:28:25.606Z,95780.03
2023-04-21T11:33:36.074Z,95774.16
2023-04-21T11:38:40.417Z,95761.00
2023-04-21T11:43:46.534Z,95770.03
2023-04-21T16:08:43.944Z,95757.88
2023-04-21T16:13:46.315Z,95769.00
2023-04-21T16:18:49.065Z,95776.56
2023-04-21T16:23:51.662Z,95766.88
2023-04-21T16:28:55.705Z,95773.34
2023-04-21T16:34:00.353Z,95790.84
2023-04-21T16:39:03.086Z,95764.53
2023-04-21T16:44:05.822Z,95770.75
2023-04-21T16:49:08.753Z,95777.72
2023-04-21T16:54:14.517Z,95777.34
2023-04-21T16:59:19.539Z,95788.84
2023-04-21T17:04:22.482Z,95795.13
2023-04-21T17:09:24.668Z,95791.38
2023-04-21T17:14:27.982Z,95807.09
2023-04-21T17:19:30.192Z,95799.91
2023-04-21T17:24:44.804Z,95821.63
2023-04-21T17:29:54.945Z,95814.19
2023-04-21T17:34:59.133Z,95835.25
2023-04-21T17:40:03.102Z,95832.50
2023-04-21T17:45:09.158Z,95841.94
2023-04-21T17:50:13.097Z,95827.97
2023-04-21T17:55:16.182Z,95840.69
2023-04-21T18:00:22.376Z,95860.72
2023-04-21T18:05:27.947Z,95850.31
2023-04-21T18:10:33.017Z,95868.38
2023-04-21T18:15:36.362Z,95860.38
2023-04-21T18:20:38.911Z,95870.53
2023-04-21T18:25:43.246Z,95830.91
2023-04-21T18:30:48.388Z,95854.53
2023-04-21T18:35:54.547Z,95871.78
2023-04-21T18:40:56.998Z,95880.00
2023-04-21T18:45:59.510Z,95886.47
2023-04-21T18:51:02.093Z,95884.66
2023-04-21T18:56:04.883Z,95911.91
2023-04-21T19:01:10.356Z,95893.25
2023-04-21T19:06:12.961Z,95912.63
2023-04-21T19:11:18.226Z,95895.19
2023-04-21T19:16:21.020Z,95917.56
2023-04-21T19:21:26.774Z,95894.44
2023-04-21T19:26:32.560Z,95908.63
2023-04-21T19:31:37.275Z,95919.44
2023-04-21T19:36:43.886Z,95920.84
2023-04-21T19:41:46.700Z,95914.00
2023-04-21T19:46:49.836Z,95877.91
2023-04-21T19:51:52.678Z,95934.88
2023-04-21T19:56:58.231Z,95920.72
2023-04-21T20:02:01.478Z,95932.34
2023-04-21T20:07:04.394Z,95918.34
2023-04-21T20:12:07.146Z,95918.19
2023-04-21T20:17:09.856Z,95927.19
2023-04-21T20:22:12.823Z,95926.97
2023-04-21T20:27:15.462Z,95926.69
2023-04-21T20:32:18.145Z,95934.50
2023-04-21T20:37:23.425Z,95920.47
2023-04-21T20:42:26.162Z,95934.03
2023-04-21T20:47:29.956Z,95912.88
2023-04-21T20:52:32.774Z,95925.84
2023-04-21T20:57:35.564Z,95934.63
2023-04-21T21:02:38.515Z,95940.53
2023-04-21T21:07:44.692Z,95932.59
2023-04-21T21:12:47.010Z,95930.03
2023-04-21T21:17:49.718Z,95925.44
2023-04-21T21:22:52.414Z,95921.16
2023-04-21T21:27:55.738Z,95951.03
2023-04-21T21:33:01.049Z,95934.28
2023-04-21T21:38:03.925Z,95940.66
2023-04-21T21:43:06.193Z,95949.38
2023-04-21T21:48:08.821Z,95960.25
2023-04-21T21:53:11.311Z,95954.59
2023-04-21T21:58:14.412Z,95952.44
2023-04-21T22:03:16.880Z,95934.81
2023-04-21T22:08:20.054Z,95932.19
2023-04-21T22:13:22.301Z,95947.81
2023-04-21T22:18:25.058Z,95973.53
2023-04-21T22:23:27.816Z,95960.19
2023-04-21T22:28:30.499Z,95958.72
2023-04-21T22:33:33.204Z,95969.72
2023-04-21T22:38:35.586Z,95969.94
2023-04-21T22:43:38.297Z,95966.41
2023-04-21T22:48:41.571Z,95996.06
2023-04-21T22:53:44.250Z,95965.84
2023-04-21T22:58:46.459Z,95963.28
2023-04-21T23:03:49.314Z,95959.72
2023-04-21T23:08:51.942Z,95961.22
2023-04-21T23:13:54.604Z,95954.66
2023-04-21T23:18:56.819Z,95967.88
2023-04-21T23:23:59.574Z,95964.88
2023-04-21T23:29:02.174Z,95960.09
2023-04-21T23:34:04.868Z,95974.25
2023-04-21T23:39:07.588Z,95958.91
2023-04-21T23:44:09.677Z,95958.81
2023-04-21T23:49:11.846Z,95965.50
2023-04-21T23:54:14.405Z,95973.88
2023-04-21T23:59:17.152Z,95985.41
